createdAt,value
2019-02-14T00:00:39.834Z,5.89
2019-02-14T00:01:39.763Z,5.93
2019-02-14T00:02:39.755Z,5.84
2019-02-14T00:03:39.745Z,5.91
2019-02-14T00:04:39.735Z,5.89
2019-02-14T00:05:39.729Z,5.91
2019-02-14T00:06:39.717Z,5.87
2019-02-14T00:07:39.709Z,5.83
2019-02-14T00:08:39.703Z,5.83
2019-02-14T00:09:39.687Z,5.83
2019-02-14T00:10:39.677Z,5.75
2019-02-14T00:11:39.667Z,5.73
2019-02-14T00:12:39.659Z,5.82
2019-02-14T00:13:39.652Z,5.72
2019-02-14T00:14:39.642Z,5.72
2019-02-14T00:15:39.631Z,5.66
2019-02-14T00:16:39.621Z,5.76
2019-02-14T00:17:39.611Z,5.61
2019-02-14T00:18:39.602Z,5.61
2019-02-14T00:19:39.989Z,5.59
2019-02-14T00:20:39.604Z,5.50
2019-02-14T00:21:39.573Z,5.53
2019-02-14T00:22:39.563Z,5.56
2019-02-14T00:23:39.554Z,5.61
2019-02-14T00:24:39.544Z,5.57
2019-02-14T00:25:39.536Z,5.61
2019-02-14T00:26:39.525Z,5.62
2019-02-14T00:27:39.513Z,5.51
2019-02-14T00:28:39.507Z,5.48
2019-02-14T00:29:39.494Z,5.46
2019-02-14T00:30:39.521Z,5.41
2019-02-14T00:31:39.505Z,5.35
2019-02-14T00:32:39.504Z,5.38
2019-02-14T00:33:39.602Z,5.30
2019-02-14T00:34:39.447Z,5.29
2019-02-14T00:35:39.437Z,5.29
2019-02-14T00:36:39.573Z,5.33
2019-02-14T00:37:39.424Z,5.32
2019-02-14T00:38:40.372Z,5.30
2019-02-14T00:39:39.589Z,5.26
2019-02-14T00:40:39.995Z,5.14
2019-02-14T00:41:39.376Z,5.15
2019-02-14T00:42:39.371Z,5.29
2019-02-14T00:43:39.364Z,5.10
2019-02-14T00:44:39.491Z,5.21
2019-02-14T00:45:39.337Z,5.20
2019-02-14T00:46:39.326Z,5.12
2019-02-14T00:47:39.319Z,5.12
2019-02-14T00:48:39.377Z,5.10
2019-02-14T00:49:39.301Z,5.07
2019-02-14T00:50:39.556Z,4.97
2019-02-14T00:51:39.276Z,5.07
2019-02-14T00:52:39.268Z,5.05
2019-02-14T00:53:39.259Z,4.94
2019-02-14T00:54:39.247Z,4.89
2019-02-14T00:55:39.241Z,4.94
2019-02-14T00:56:39.229Z,4.89
2019-02-14T00:57:39.217Z,4.96
2019-02-14T00:58:39.207Z,4.92
2019-02-14T00:59:39.196Z,4.94
2019-02-14T01:00:39.186Z,4.93
2019-02-14T01:01:39.178Z,4.93
2019-02-14T01:02:39.166Z,4.93
2019-02-14T01:03:39.156Z,4.93
2019-02-14T01:04:39.148Z,4.92
2019-02-14T01:05:39.142Z,4.90
2019-02-14T01:06:39.127Z,4.90
2019-02-14T01:07:39.117Z,4.90
2019-02-14T01:08:39.105Z,4.89
2019-02-14T01:09:39.095Z,4.86
2019-02-14T01:10:39.086Z,4.86
2019-02-14T01:11:39.073Z,4.87
2019-02-14T01:12:39.064Z,4.92
2019-02-14T01:13:39.058Z,4.90
2019-02-14T01:14:39.044Z,4.86
2019-02-14T01:15:39.040Z,4.89
2019-02-14T01:16:39.026Z,4.80
2019-02-14T01:17:39.012Z,4.89
2019-02-14T01:18:39.003Z,4.84
2019-02-14T01:19:38.995Z,4.78
2019-02-14T01:20:38.982Z,4.75
2019-02-14T01:21:38.976Z,4.89
2019-02-14T01:22:38.963Z,4.86
2019-02-14T01:23:38.956Z,4.92
2019-02-14T01:24:38.943Z,4.90
2019-02-14T01:25:38.932Z,4.93
2019-02-14T01:26:38.921Z,4.87
2019-02-14T01:27:38.912Z,4.90
2019-02-14T01:28:38.903Z,4.80
2019-02-14T01:29:38.893Z,4.90
2019-02-14T01:30:38.887Z,4.89
2019-02-14T01:31:38.872Z,4.84
2019-02-14T01:32:38.865Z,4.75
2019-02-14T01:33:38.852Z,4.78
2019-02-14T01:34:38.839Z,4.74
2019-02-14T01:35:41.939Z,4.75
2019-02-14T01:36:38.818Z,4.77
2019-02-14T01:37:38.811Z,4.82
2019-02-14T01:38:38.800Z,4.77
2019-02-14T01:39:38.791Z,4.78
2019-02-14T01:40:38.776Z,4.80
2019-02-14T01:41:38.768Z,4.71
2019-02-14T01:42:38.760Z,4.77
2019-02-14T01:43:38.748Z,4.75
2019-02-14T01:44:38.748Z,4.74
2019-02-14T01:45:38.725Z,4.62
2019-02-14T01:46:38.715Z,4.62
2019-02-14T01:47:38.705Z,4.60
2019-02-14T01:48:38.694Z,4.62
2019-02-14T01:49:38.684Z,4.63
2019-02-14T01:50:38.674Z,4.63
2019-02-14T01:51:38.671Z,4.59
2019-02-14T01:52:38.653Z,4.60
2019-02-14T01:53:38.650Z,4.55
2019-02-14T01:54:38.634Z,4.60
2019-02-14T01:55:38.626Z,4.55
2019-02-14T01:56:38.612Z,4.56
2019-02-14T01:57:38.601Z,4.62
2019-02-14T01:58:38.593Z,4.63
2019-02-14T01:59:38.584Z,4.56
2019-02-14T02:00:38.570Z,4.60
2019-02-14T02:01:38.566Z,4.55
2019-02-14T02:02:38.551Z,4.56
2019-02-14T02:03:38.538Z,4.49
2019-02-14T02:04:38.528Z,4.52
2019-02-14T02:05:38.540Z,4.45
2019-02-14T02:06:38.507Z,4.42
2019-02-14T02:07:38.502Z,4.48
2019-02-14T02:08:38.488Z,4.48
2019-02-14T02:09:38.476Z,4.49
2019-02-14T02:10:38.483Z,4.41
2019-02-14T02:11:38.465Z,4.34
2019-02-14T02:12:39.155Z,4.42
2019-02-14T02:13:38.469Z,4.38
2019-02-14T02:14:38.423Z,4.41
2019-02-14T02:15:38.412Z,4.26
2019-02-14T02:16:38.400Z,4.37
2019-02-14T02:17:38.395Z,4.41
2019-02-14T02:18:38.381Z,4.41
2019-02-14T02:19:38.373Z,4.30
2019-02-14T02:20:38.359Z,4.26
2019-02-14T02:21:38.347Z,4.26
2019-02-14T02:22:38.347Z,4.35
2019-02-14T02:23:38.329Z,4.28
2019-02-14T02:24:38.320Z,4.30
2019-02-14T02:25:38.307Z,4.22
2019-02-14T02:26:38.295Z,4.23
2019-02-14T02:27:38.283Z,4.31
2019-02-14T02:28:38.274Z,4.31
2019-02-14T02:29:38.264Z,4.31
2019-02-14T02:30:38.253Z,4.34
2019-02-14T02:31:38.243Z,4.31
2019-02-14T02:32:38.236Z,4.28
2019-02-14T02:33:38.222Z,4.32
2019-02-14T02:34:38.215Z,4.31
2019-02-14T02:35:38.200Z,4.34
2019-02-14T02:36:38.188Z,4.30
2019-02-14T02:37:38.177Z,4.24
2019-02-14T02:38:38.169Z,4.22
2019-02-14T02:39:38.155Z,4.30
2019-02-14T02:40:38.146Z,4.23
2019-02-14T02:41:38.137Z,4.26
2019-02-14T02:42:38.124Z,4.26
2019-02-14T02:43:38.112Z,4.20
2019-02-14T02:44:38.102Z,4.22
2019-02-14T02:45:38.092Z,4.16
2019-02-14T02:46:38.082Z,4.20
2019-02-14T02:47:38.073Z,4.12
2019-02-14T02:48:38.058Z,4.16
2019-02-14T02:49:38.047Z,4.22
2019-02-14T02:50:38.037Z,4.16
2019-02-14T02:51:38.046Z,4.19
2019-02-14T02:52:38.016Z,4.20
2019-02-14T02:53:38.007Z,4.13
2019-02-14T02:54:37.998Z,4.14
2019-02-14T02:55:37.987Z,4.19
2019-02-14T02:56:37.976Z,4.22
2019-02-14T02:57:37.965Z,4.16
2019-02-14T02:58:37.950Z,4.12
2019-02-14T02:59:37.944Z,4.14
2019-02-14T03:00:37.934Z,4.06
2019-02-14T03:01:37.918Z,4.06
2019-02-14T03:02:37.911Z,4.04
2019-02-14T03:03:37.897Z,4.01
2019-02-14T03:04:37.902Z,4.12
2019-02-14T03:05:37.877Z,4.08
2019-02-14T03:06:37.869Z,4.04
2019-02-14T03:07:37.853Z,4.04
2019-02-14T03:08:37.843Z,4.02
2019-02-14T03:09:37.840Z,3.99
2019-02-14T03:10:37.824Z,4.01
2019-02-14T03:11:37.812Z,3.98
2019-02-14T03:12:37.803Z,4.02
2019-02-14T03:13:37.907Z,4.01
2019-02-14T03:14:37.778Z,3.99
2019-02-14T03:15:37.773Z,4.02
2019-02-14T03:16:37.756Z,3.94
2019-02-14T03:17:37.747Z,3.99
2019-02-14T03:18:37.735Z,3.99
2019-02-14T03:19:37.725Z,3.91
2019-02-14T03:20:37.716Z,3.98
2019-02-14T03:21:37.700Z,3.98
2019-02-14T03:22:37.689Z,4.02
2019-02-14T03:23:37.684Z,4.01
2019-02-14T03:24:37.671Z,4.02
2019-02-14T03:25:37.659Z,3.95
2019-02-14T03:26:37.651Z,3.99
2019-02-14T03:27:37.640Z,3.99
2019-02-14T03:28:37.624Z,3.98
2019-02-14T03:29:37.614Z,3.98
2019-02-14T03:30:37.606Z,4.04
2019-02-14T03:31:37.595Z,4.01
2019-02-14T03:32:37.585Z,3.99
2019-02-14T03:33:37.570Z,3.99
2019-02-14T03:34:37.560Z,4.02
2019-02-14T03:35:37.554Z,3.96
2019-02-14T03:36:37.538Z,3.95
2019-02-14T03:37:37.528Z,4.02
2019-02-14T03:38:37.517Z,3.95
2019-02-14T03:39:37.507Z,4.04
2019-02-14T03:40:37.494Z,3.92
2019-02-14T03:41:37.485Z,3.92
2019-02-14T03:42:37.476Z,3.91
2019-02-14T03:43:37.466Z,3.91
2019-02-14T03:44:38.289Z,3.84
2019-02-14T03:45:37.444Z,3.91
2019-02-14T03:46:37.430Z,3.92
2019-02-14T03:47:37.418Z,3.92
2019-02-14T03:48:37.407Z,3.98
2019-02-14T03:49:37.397Z,3.95
2019-02-14T03:50:37.394Z,3.98
2019-02-14T03:51:37.374Z,3.98
2019-02-14T03:52:37.364Z,3.96
2019-02-14T03:53:37.350Z,3.98
2019-02-14T03:54:37.350Z,4.04
2019-02-14T03:55:37.332Z,4.05
2019-02-14T03:56:37.348Z,3.95
2019-02-14T03:57:37.308Z,4.01
2019-02-14T03:58:37.299Z,3.96
2019-02-14T03:59:37.286Z,3.96
2019-02-14T04:00:37.281Z,3.99
2019-02-14T04:01:37.263Z,4.01
2019-02-14T04:02:37.252Z,3.98
2019-02-14T04:03:37.243Z,3.99
2019-02-14T04:04:37.229Z,3.92
2019-02-14T04:05:37.219Z,4.04
2019-02-14T04:06:37.206Z,3.96
2019-02-14T04:07:37.197Z,3.98
2019-02-14T04:08:37.185Z,3.99
2019-02-14T04:09:37.174Z,3.99
2019-02-14T04:10:37.166Z,3.99
2019-02-14T04:11:37.153Z,3.91
2019-02-14T04:12:37.145Z,3.88
2019-02-14T04:13:37.132Z,3.94
2019-02-14T04:14:37.117Z,3.88
2019-02-14T04:15:37.109Z,3.83
2019-02-14T04:16:37.097Z,3.73
2019-02-14T04:17:37.084Z,3.80
2019-02-14T04:18:37.075Z,3.70
2019-02-14T04:19:37.063Z,3.59
2019-02-14T04:20:37.052Z,3.60
2019-02-14T04:21:37.041Z,3.63
2019-02-14T04:22:37.028Z,3.58
2019-02-14T04:23:37.020Z,3.56
2019-02-14T04:24:37.006Z,3.53
2019-02-14T04:25:37.026Z,3.58
2019-02-14T04:26:36.980Z,3.58
2019-02-14T04:27:36.980Z,3.51
2019-02-14T04:28:36.968Z,3.63
2019-02-14T04:29:36.954Z,3.65
2019-02-14T04:30:36.941Z,3.60
2019-02-14T04:31:36.930Z,3.62
2019-02-14T04:32:36.918Z,3.60
2019-02-14T04:33:36.909Z,3.60
2019-02-14T04:34:36.894Z,3.59
2019-02-14T04:35:36.890Z,3.62
2019-02-14T04:36:36.877Z,3.62
2019-02-14T04:37:36.861Z,3.58
2019-02-14T04:38:36.852Z,3.55
2019-02-14T04:39:36.841Z,3.53
2019-02-14T04:40:36.832Z,3.44
2019-02-14T04:41:36.819Z,3.51
2019-02-14T04:42:36.809Z,3.51
2019-02-14T04:43:36.795Z,3.47
2019-02-14T04:44:36.784Z,3.42
2019-02-14T04:45:37.028Z,3.42
2019-02-14T04:46:36.762Z,3.41
2019-02-14T04:47:36.752Z,3.40
2019-02-14T04:48:36.740Z,3.40
2019-02-14T04:49:36.732Z,3.40
2019-02-14T04:50:36.714Z,3.40
2019-02-14T04:51:36.706Z,3.41
2019-02-14T04:52:36.693Z,3.37
2019-02-14T04:53:36.682Z,3.41
2019-02-14T04:54:36.671Z,3.34
2019-02-14T04:55:36.662Z,3.45
2019-02-14T04:56:36.654Z,3.36
2019-02-14T04:57:36.638Z,3.34
2019-02-14T04:58:36.627Z,3.44
2019-02-14T04:59:36.617Z,3.41
2019-02-14T05:00:36.602Z,3.53
2019-02-14T05:01:36.594Z,3.50
2019-02-14T05:02:36.585Z,3.45
2019-02-14T05:03:36.571Z,3.55
2019-02-14T05:04:36.560Z,3.50
2019-02-14T05:05:36.552Z,3.50
2019-02-14T05:06:44.108Z,3.53
2019-02-14T05:07:36.531Z,3.53
2019-02-14T05:08:36.515Z,3.50
2019-02-14T05:09:36.507Z,3.51
2019-02-14T05:10:36.492Z,3.55
2019-02-14T05:11:36.481Z,3.50
2019-02-14T05:12:36.469Z,3.44
2019-02-14T05:13:36.461Z,3.40
2019-02-14T05:14:36.450Z,3.40
2019-02-14T05:15:36.436Z,3.51
2019-02-14T05:16:36.418Z,3.45
2019-02-14T05:17:36.411Z,3.55
2019-02-14T05:18:36.401Z,3.55
2019-02-14T05:19:36.392Z,3.53
2019-02-14T05:20:36.380Z,3.53
2019-02-14T05:21:36.369Z,3.68
2019-02-14T05:22:36.364Z,3.68
2019-02-14T05:23:36.353Z,3.59
2019-02-14T05:24:36.334Z,3.65
2019-02-14T05:25:36.324Z,3.70
2019-02-14T05:26:36.316Z,3.77
2019-02-14T05:27:36.301Z,3.70
2019-02-14T05:28:36.290Z,3.77
2019-02-14T05:29:36.280Z,3.78
2019-02-14T05:30:36.272Z,3.69
2019-02-14T05:31:37.577Z,3.76
2019-02-14T05:32:36.246Z,3.74
2019-02-14T05:33:36.236Z,3.78
2019-02-14T05:34:36.224Z,3.80
2019-02-14T05:35:36.212Z,3.83
2019-02-14T05:36:36.199Z,3.80
2019-02-14T05:37:36.190Z,3.73
2019-02-14T05:38:36.179Z,3.81
2019-02-14T05:39:36.166Z,3.77
2019-02-14T05:40:36.157Z,3.69
2019-02-14T05:41:36.146Z,3.76
2019-02-14T05:42:36.134Z,3.74
2019-02-14T05:43:36.123Z,3.77
2019-02-14T05:44:36.115Z,3.76
2019-02-14T05:45:36.100Z,3.74
2019-02-14T05:46:36.084Z,3.80
2019-02-14T05:47:36.079Z,3.70
2019-02-14T05:48:36.068Z,3.81
2019-02-14T05:49:36.057Z,3.77
2019-02-14T05:50:36.046Z,3.76
2019-02-14T05:51:36.032Z,3.70
2019-02-14T05:52:36.020Z,3.83
2019-02-14T05:53:36.012Z,3.74
2019-02-14T05:54:35.997Z,3.81
2019-02-14T05:55:35.990Z,3.91
2019-02-14T05:56:35.976Z,3.91
2019-02-14T05:57:35.966Z,3.88
2019-02-14T05:58:35.954Z,3.92
2019-02-14T05:59:35.944Z,3.84
2019-02-14T06:00:35.932Z,3.92
2019-02-14T06:01:37.453Z,3.94
2019-02-14T06:02:35.908Z,3.88
2019-02-14T06:03:35.900Z,3.86
2019-02-14T06:04:35.891Z,3.92
2019-02-14T06:05:35.877Z,3.87
2019-02-14T06:06:35.867Z,3.92
2019-02-14T06:07:35.855Z,3.81
2019-02-14T06:08:35.842Z,3.88
2019-02-14T06:09:35.833Z,3.86
2019-02-14T06:10:35.821Z,3.87
2019-02-14T06:11:35.811Z,3.84
2019-02-14T06:12:35.797Z,3.81
2019-02-14T06:13:35.790Z,3.83
2019-02-14T06:14:35.775Z,3.83
2019-02-14T06:15:35.765Z,3.73
2019-02-14T06:16:35.754Z,3.83
2019-02-14T06:17:36.189Z,3.83
2019-02-14T06:18:35.732Z,3.70
2019-02-14T06:19:35.720Z,3.76
2019-02-14T06:20:35.707Z,3.84
2019-02-14T06:21:35.701Z,3.83
2019-02-14T06:22:35.687Z,3.86
2019-02-14T06:23:35.683Z,3.73
2019-02-14T06:24:35.666Z,3.83
2019-02-14T06:25:35.652Z,3.80
2019-02-14T06:26:35.643Z,3.80
2019-02-14T06:27:35.630Z,3.74
2019-02-14T06:28:37.322Z,3.77
2019-02-14T06:29:35.611Z,3.76
2019-02-14T06:30:35.597Z,3.63
2019-02-14T06:31:35.589Z,3.60
2019-02-14T06:32:35.573Z,3.63
2019-02-14T06:33:35.562Z,3.74
2019-02-14T06:34:35.551Z,3.73
2019-02-14T06:35:35.547Z,3.74
2019-02-14T06:36:35.530Z,3.68
2019-02-14T06:37:35.518Z,3.73
2019-02-14T06:38:35.506Z,3.62
2019-02-14T06:39:35.495Z,3.69
2019-02-14T06:40:35.485Z,3.74
2019-02-14T06:41:35.476Z,3.73
2019-02-14T06:42:35.466Z,3.74
2019-02-14T06:43:35.448Z,3.83
2019-02-14T06:44:35.440Z,3.81
2019-02-14T06:45:36.954Z,3.88
2019-02-14T06:46:35.418Z,3.94
2019-02-14T06:47:35.407Z,4.02
2019-02-14T06:48:35.392Z,4.04
2019-02-14T06:49:35.385Z,4.06
2019-02-14T06:50:35.372Z,3.99
2019-02-14T06:51:35.370Z,4.04
2019-02-14T06:52:35.353Z,4.08
2019-02-14T06:53:35.337Z,4.17
2019-02-14T06:54:35.333Z,4.13
2019-02-14T06:55:35.319Z,4.16
2019-02-14T06:56:35.306Z,4.08
2019-02-14T06:57:35.299Z,4.17
2019-02-14T06:58:35.285Z,4.04
2019-02-14T06:59:35.272Z,4.12
2019-02-14T07:00:35.262Z,4.06
2019-02-14T07:01:35.251Z,4.08
2019-02-14T07:02:35.241Z,4.04
2019-02-14T07:03:35.229Z,4.01
2019-02-14T07:04:35.219Z,4.01
2019-02-14T07:05:35.210Z,3.99
2019-02-14T07:06:35.196Z,3.87
2019-02-14T07:07:35.185Z,3.96
2019-02-14T07:08:35.169Z,3.87
2019-02-14T07:09:35.162Z,3.88
2019-02-14T07:10:35.154Z,3.96
2019-02-14T07:11:35.138Z,3.91
2019-02-14T07:12:35.128Z,3.96
2019-02-14T07:13:35.120Z,4.02
2019-02-14T07:14:35.111Z,4.05
2019-02-14T07:15:35.093Z,3.98
2019-02-14T07:16:35.083Z,3.96
2019-02-14T07:17:35.072Z,4.02
2019-02-14T07:18:49.965Z,4.10
2019-02-14T07:19:35.053Z,4.06
2019-02-14T07:20:35.037Z,4.01
2019-02-14T07:21:35.025Z,4.02
2019-02-14T07:22:35.018Z,4.01
2019-02-14T07:23:35.003Z,3.96
2019-02-14T07:24:34.994Z,3.87
2019-02-14T07:25:34.981Z,3.91
2019-02-14T07:26:34.972Z,3.91
2019-02-14T07:27:34.960Z,3.91
2019-02-14T07:28:34.949Z,3.86
2019-02-14T07:29:34.937Z,3.83
2019-02-14T07:30:34.930Z,3.83
2019-02-14T07:31:34.911Z,3.88
2019-02-14T07:32:34.900Z,3.91
2019-02-14T07:33:34.895Z,3.88
2019-02-14T07:34:34.879Z,3.86
2019-02-14T07:35:34.869Z,3.91
2019-02-14T07:36:34.862Z,3.99
2019-02-14T07:37:34.845Z,3.99
2019-02-14T07:38:34.837Z,3.98
2019-02-14T07:39:34.826Z,4.01
2019-02-14T07:40:34.814Z,4.06
2019-02-14T07:41:34.802Z,4.01
2019-02-14T07:42:34.795Z,4.04
2019-02-14T07:43:34.778Z,3.88
2019-02-14T07:44:34.768Z,4.01
2019-02-14T07:45:34.768Z,3.99
2019-02-14T07:46:34.746Z,4.01
2019-02-14T07:47:34.732Z,4.05
2019-02-14T07:48:34.723Z,3.99
2019-02-14T07:49:35.374Z,4.08
2019-02-14T07:50:34.701Z,4.06
2019-02-14T07:51:34.690Z,4.06
2019-02-14T07:52:34.680Z,4.14
2019-02-14T07:53:34.666Z,4.13
2019-02-14T07:54:34.653Z,4.16
2019-02-14T07:55:34.644Z,4.22
2019-02-14T07:56:34.636Z,4.24
2019-02-14T07:57:34.622Z,4.26
2019-02-14T07:58:34.611Z,4.24
2019-02-14T07:59:34.603Z,4.38
2019-02-14T08:00:34.583Z,4.28
2019-02-14T08:01:34.585Z,4.30
2019-02-14T08:02:34.562Z,4.26
2019-02-14T08:03:34.554Z,4.23
2019-02-14T08:04:36.456Z,4.26
2019-02-14T08:05:34.538Z,4.38
2019-02-14T08:06:34.518Z,4.23
2019-02-14T08:07:36.148Z,4.40
2019-02-14T08:08:34.521Z,4.42
2019-02-14T08:09:34.490Z,4.34
2019-02-14T08:10:34.479Z,4.34
2019-02-14T08:11:34.473Z,4.37
2019-02-14T08:12:34.452Z,4.38
2019-02-14T08:13:34.444Z,4.40
2019-02-14T08:14:34.438Z,4.48
2019-02-14T08:15:34.486Z,4.49
2019-02-14T08:16:34.422Z,4.49
2019-02-14T08:17:34.401Z,4.56
2019-02-14T08:18:34.384Z,4.44
2019-02-14T08:19:35.958Z,4.50
2019-02-14T08:20:34.364Z,4.60
2019-02-14T08:21:34.359Z,4.59
2019-02-14T08:22:34.348Z,4.63
2019-02-14T08:23:34.340Z,4.67
2019-02-14T08:24:34.325Z,4.60
2019-02-14T08:25:34.320Z,4.73
2019-02-14T08:26:34.310Z,4.77
2019-02-14T08:27:34.298Z,4.80
2019-02-14T08:28:34.285Z,4.89
2019-02-14T08:29:34.267Z,4.84
2019-02-14T08:30:34.261Z,4.89
2019-02-14T08:31:34.253Z,4.92
2019-02-14T08:32:34.237Z,4.94
2019-02-14T08:33:34.232Z,4.94
2019-02-14T08:34:34.220Z,4.90
2019-02-14T08:35:34.209Z,4.92
2019-02-14T08:36:34.196Z,4.94
2019-02-14T08:37:34.197Z,4.93
2019-02-14T08:38:34.178Z,4.97
2019-02-14T08:39:34.171Z,5.05
2019-02-14T08:40:34.162Z,5.04
2019-02-14T08:41:34.146Z,5.05
2019-02-14T08:42:34.149Z,5.05
2019-02-14T08:43:34.128Z,5.17
2019-02-14T08:44:34.125Z,5.11
2019-02-14T08:45:34.105Z,5.15
2019-02-14T08:46:34.094Z,5.14
2019-02-14T08:47:34.086Z,5.14
2019-02-14T08:48:34.067Z,5.23
2019-02-14T08:49:35.252Z,5.17
2019-02-14T08:50:34.108Z,5.14
2019-02-14T08:51:34.088Z,5.15
2019-02-14T08:52:34.036Z,5.15
2019-02-14T08:53:34.019Z,5.20
2019-02-14T08:54:34.007Z,5.10
2019-02-14T08:55:34.005Z,5.12
2019-02-14T08:56:33.992Z,5.18
2019-02-14T08:57:34.422Z,5.18
2019-02-14T08:58:33.981Z,5.18
2019-02-14T08:59:34.208Z,5.17
2019-02-14T09:00:33.951Z,5.15
2019-02-14T09:01:33.940Z,5.11
2019-02-14T09:02:33.930Z,5.14
2019-02-14T09:03:33.921Z,5.18
2019-02-14T09:04:33.907Z,5.11
2019-02-14T09:05:33.895Z,5.12
2019-02-14T09:06:33.889Z,5.14
2019-02-14T09:07:33.881Z,5.14
2019-02-14T09:08:33.893Z,5.10
2019-02-14T09:09:33.858Z,5.14
2019-02-14T09:10:33.847Z,5.18
2019-02-14T09:11:33.834Z,5.14
2019-02-14T09:12:35.575Z,5.23
2019-02-14T09:13:33.828Z,5.14
2019-02-14T09:14:33.813Z,5.17
2019-02-14T09:15:33.793Z,5.17
2019-02-14T09:16:33.788Z,5.14
2019-02-14T09:17:34.407Z,5.17
2019-02-14T09:18:33.764Z,5.20
2019-02-14T09:19:33.759Z,5.21
2019-02-14T09:20:33.755Z,5.23
2019-02-14T09:21:34.492Z,5.32
2019-02-14T09:22:33.716Z,5.33
2019-02-14T09:23:33.708Z,5.35
2019-02-14T09:24:33.703Z,5.32
2019-02-14T09:25:33.697Z,5.36
2019-02-14T09:26:33.688Z,5.39
2019-02-14T09:27:33.670Z,5.39
2019-02-14T09:28:33.660Z,5.39
2019-02-14T09:29:33.648Z,5.44
2019-02-14T09:30:33.639Z,5.39
2019-02-14T09:31:33.628Z,5.43
2019-02-14T09:32:33.617Z,5.47
2019-02-14T09:33:33.608Z,5.50
2019-02-14T09:34:33.598Z,5.50
2019-02-14T09:35:33.586Z,5.57
2019-02-14T09:36:34.469Z,5.59
2019-02-14T09:37:33.565Z,5.56
2019-02-14T09:38:33.558Z,5.50
2019-02-14T09:39:40.783Z,5.54
2019-02-14T09:40:33.539Z,5.65
2019-02-14T09:41:33.526Z,5.61
2019-02-14T09:42:33.519Z,5.62
2019-02-14T09:43:33.503Z,5.68
2019-02-14T09:44:33.495Z,5.68
2019-02-14T09:45:33.486Z,5.65
2019-02-14T09:46:33.484Z,5.69
2019-02-14T09:47:33.464Z,5.68
2019-02-14T09:48:33.457Z,5.71
2019-02-14T09:49:33.452Z,5.72
2019-02-14T09:50:33.449Z,5.73
2019-02-14T09:51:33.434Z,5.82
2019-02-14T09:52:33.420Z,5.89
2019-02-14T09:53:33.405Z,5.84
2019-02-14T09:54:33.393Z,5.84
2019-02-14T09:55:33.384Z,6.01
2019-02-14T09:56:33.379Z,5.90
2019-02-14T09:57:33.367Z,5.99
2019-02-14T09:58:33.352Z,6.07
2019-02-14T09:59:33.358Z,5.99
2019-02-14T10:00:33.349Z,6.02
2019-02-14T10:01:33.324Z,6.02
2019-02-14T10:02:33.313Z,6.09
2019-02-14T10:03:33.323Z,6.09
2019-02-14T10:04:33.299Z,6.16
2019-02-14T10:05:33.285Z,6.17
2019-02-14T10:06:36.734Z,6.19
2019-02-14T10:07:33.285Z,6.14
2019-02-14T10:08:33.252Z,6.17
2019-02-14T10:09:33.279Z,6.28
2019-02-14T10:10:33.234Z,6.31
2019-02-14T10:11:33.225Z,6.28
2019-02-14T10:12:33.217Z,6.33
2019-02-14T10:13:33.220Z,6.41
2019-02-14T10:14:33.197Z,6.36
2019-02-14T10:15:33.193Z,6.38
2019-02-14T10:16:33.179Z,6.52
2019-02-14T10:17:33.166Z,6.59
2019-02-14T10:18:33.162Z,6.63
2019-02-14T10:19:33.145Z,6.63
2019-02-14T10:20:33.136Z,6.72
2019-02-14T10:21:33.141Z,6.72
2019-02-14T10:22:33.306Z,6.79
2019-02-14T10:23:33.108Z,6.92
2019-02-14T10:24:33.098Z,6.85
2019-02-14T10:25:33.086Z,6.84
2019-02-14T10:26:33.081Z,6.88
2019-02-14T10:27:33.068Z,6.87
2019-02-14T10:28:33.060Z,6.92
2019-02-14T10:29:33.052Z,6.89
2019-02-14T10:30:33.046Z,6.88
2019-02-14T10:31:33.032Z,6.97
2019-02-14T10:32:33.023Z,7.03
2019-02-14T10:33:33.013Z,7.05
2019-02-14T10:34:33.005Z,7.14
2019-02-14T10:35:32.999Z,7.15
2019-02-14T10:36:32.983Z,7.21
2019-02-14T10:37:32.974Z,7.24
2019-02-14T10:38:32.964Z,7.13
2019-02-14T10:39:32.954Z,7.17
2019-02-14T10:40:32.950Z,7.32
2019-02-14T10:41:32.937Z,7.29
2019-02-14T10:42:32.929Z,7.32
2019-02-14T10:43:32.917Z,7.29
2019-02-14T10:44:32.906Z,7.35
2019-02-14T10:45:32.900Z,7.45
2019-02-14T10:46:32.890Z,7.40
2019-02-14T10:47:32.890Z,7.42
2019-02-14T10:48:32.868Z,7.45
2019-02-14T10:49:32.865Z,7.51
2019-02-14T10:50:32.854Z,7.53
2019-02-14T10:51:33.072Z,7.63
2019-02-14T10:52:32.838Z,7.63
2019-02-14T10:53:33.765Z,7.72
2019-02-14T10:54:32.817Z,7.76
2019-02-14T10:55:32.814Z,7.80
2019-02-14T10:56:32.805Z,7.91
2019-02-14T10:57:32.793Z,7.88
2019-02-14T10:58:32.911Z,8.00
2019-02-14T10:59:32.777Z,7.94
2019-02-14T11:00:32.759Z,8.03
2019-02-14T11:01:32.750Z,8.01
2019-02-14T11:02:32.745Z,8.01
2019-02-14T11:03:32.866Z,8.09
2019-02-14T11:04:32.727Z,8.19
2019-02-14T11:05:32.718Z,8.23
2019-02-14T11:06:33.404Z,8.30
2019-02-14T11:07:32.882Z,8.46
2019-02-14T11:08:32.690Z,8.49
2019-02-14T11:09:32.684Z,8.52
2019-02-14T11:10:32.676Z,8.52
2019-02-14T11:11:32.693Z,8.60
2019-02-14T11:12:32.669Z,8.56
2019-02-14T11:13:32.651Z,8.60
2019-02-14T11:14:32.641Z,8.53
2019-02-14T11:15:32.631Z,8.69
2019-02-14T11:16:32.623Z,8.73
2019-02-14T11:17:32.623Z,8.73
2019-02-14T11:18:32.606Z,8.81
2019-02-14T11:19:32.602Z,8.84
2019-02-14T11:20:32.587Z,8.94
2019-02-14T11:21:32.582Z,8.89
2019-02-14T11:22:32.575Z,9.00
2019-02-14T11:23:32.558Z,8.97
2019-02-14T11:24:32.572Z,9.03
2019-02-14T11:25:32.547Z,8.97
2019-02-14T11:26:32.539Z,8.95
2019-02-14T11:27:32.529Z,9.04
2019-02-14T11:28:32.524Z,9.22
2019-02-14T11:29:32.519Z,9.18
2019-02-14T11:30:32.506Z,9.22
2019-02-14T11:31:34.608Z,9.18
2019-02-14T11:32:32.493Z,9.22
2019-02-14T11:33:32.497Z,9.19
2019-02-14T11:34:32.474Z,9.21
2019-02-14T11:35:32.482Z,9.29
2019-02-14T11:36:32.554Z,9.32
2019-02-14T11:37:32.451Z,9.47
2019-02-14T11:38:40.446Z,9.41
2019-02-14T11:39:32.438Z,9.48
2019-02-14T11:40:32.426Z,9.44
2019-02-14T11:41:32.421Z,9.54
2019-02-14T11:42:33.973Z,9.61
2019-02-14T11:43:33.975Z,9.61
2019-02-14T11:44:39.548Z,9.69
2019-02-14T11:45:32.392Z,9.76
2019-02-14T11:46:32.389Z,9.83
2019-02-14T11:47:32.373Z,9.84
2019-02-14T11:48:32.367Z,9.83
2019-02-14T11:49:32.358Z,9.95
2019-02-14T11:50:32.350Z,9.97
2019-02-14T11:51:32.340Z,10.02
2019-02-14T11:52:32.334Z,10.13
2019-02-14T11:53:32.326Z,10.09
2019-02-14T11:54:32.464Z,9.99
2019-02-14T11:55:32.311Z,10.09
2019-02-14T11:56:32.302Z,10.10
2019-02-14T11:57:33.982Z,10.10
2019-02-14T11:58:32.297Z,10.19
2019-02-14T11:59:32.282Z,10.19
2019-02-14T12:00:32.278Z,10.19
2019-02-14T12:01:32.262Z,10.28
2019-02-14T12:02:32.260Z,10.28
2019-02-14T12:03:32.258Z,10.35
2019-02-14T12:04:32.245Z,10.37
2019-02-14T12:05:32.237Z,10.46
2019-02-14T12:06:32.250Z,10.38
2019-02-14T12:07:32.235Z,10.41
2019-02-14T12:08:32.220Z,10.44
2019-02-14T12:09:32.212Z,10.59
2019-02-14T12:10:32.199Z,10.44
2019-02-14T12:11:32.210Z,10.53
2019-02-14T12:12:32.191Z,10.54
2019-02-14T12:13:32.178Z,10.54
2019-02-14T12:14:32.175Z,10.56
2019-02-14T12:15:32.173Z,10.64
2019-02-14T12:16:32.472Z,10.69
2019-02-14T12:17:32.155Z,10.64
2019-02-14T12:18:32.145Z,10.69
2019-02-14T12:19:32.135Z,10.64
2019-02-14T12:20:32.128Z,10.72
2019-02-14T12:21:32.154Z,10.74
2019-02-14T12:22:32.121Z,10.71
2019-02-14T12:23:32.128Z,10.76
2019-02-14T12:24:32.103Z,10.81
2019-02-14T12:25:32.839Z,10.81
2019-02-14T12:26:32.114Z,10.86
2019-02-14T12:27:32.081Z,10.81
2019-02-14T12:28:32.078Z,10.87
2019-02-14T12:29:32.068Z,10.90
2019-02-14T12:30:32.061Z,10.87
2019-02-14T12:31:32.057Z,10.94
2019-02-14T12:32:32.045Z,10.97
2019-02-14T12:33:32.039Z,10.92
2019-02-14T12:34:32.035Z,11.05
2019-02-14T12:35:33.980Z,11.11
2019-02-14T12:36:32.029Z,11.11
2019-02-14T12:37:32.015Z,11.19
2019-02-14T12:38:35.981Z,11.17
2019-02-14T12:39:33.996Z,11.17
2019-02-14T12:40:31.993Z,11.22
2019-02-14T12:41:32.010Z,11.25
2019-02-14T12:42:32.000Z,11.27
2019-02-14T12:43:31.991Z,11.32
2019-02-14T12:44:31.968Z,11.44
2019-02-14T12:45:32.012Z,11.33
2019-02-14T12:46:31.957Z,11.43
2019-02-14T12:47:31.949Z,11.44
2019-02-14T12:48:31.939Z,11.48
2019-02-14T12:49:31.943Z,11.48
2019-02-14T12:50:31.929Z,11.47
2019-02-14T12:51:31.922Z,11.47
2019-02-14T12:52:31.918Z,11.44
2019-02-14T12:53:31.911Z,11.55
2019-02-14T12:54:31.901Z,11.55
2019-02-14T12:55:31.894Z,11.59
2019-02-14T12:56:31.891Z,11.60
2019-02-14T12:57:31.892Z,11.60
2019-02-14T12:58:31.882Z,11.57
2019-02-14T12:59:31.869Z,11.59
2019-02-14T13:00:31.866Z,11.52
2019-02-14T13:01:31.858Z,11.55
2019-02-14T13:02:31.856Z,11.54
2019-02-14T13:03:31.846Z,11.72
2019-02-14T13:04:31.842Z,11.68
2019-02-14T13:05:31.870Z,11.66
2019-02-14T13:06:31.829Z,11.70
2019-02-14T13:07:31.822Z,11.68
2019-02-14T13:08:31.815Z,11.75
2019-02-14T13:09:31.809Z,11.72
2019-02-14T13:10:31.802Z,11.68
2019-02-14T13:11:31.816Z,11.68
2019-02-14T13:12:31.791Z,11.77
2019-02-14T13:13:31.789Z,11.77
2019-02-14T13:14:31.776Z,11.80
2019-02-14T13:15:33.488Z,11.83